sensor_id;sensor_type;location;lat;lon;timestamp;temperature;humidity
10155;DHT22;5118;48.570;7.916;2022-07-29T00:01:42;23.10;74.30
10155;DHT22;5118;48.570;7.916;2022-07-29T00:04:11;23.00;75.00
10155;DHT22;5118;48.570;7.916;2022-07-29T00:06:41;22.90;75.10
10155;DHT22;5118;48.570;7.916;2022-07-29T00:09:10;22.90;75.80
10155;DHT22;5118;48.570;7.916;2022-07-29T00:11:38;22.80;76.30
10155;DHT22;5118;48.570;7.916;2022-07-29T00:14:08;22.70;76.90
10155;DHT22;5118;48.570;7.916;2022-07-29T00:16:37;22.60;77.40
10155;DHT22;5118;48.570;7.916;2022-07-29T00:19:05;22.60;77.50
10155;DHT22;5118;48.570;7.916;2022-07-29T00:21:34;22.60;77.90
10155;DHT22;5118;48.570;7.916;2022-07-29T00:24:03;22.60;78.20
10155;DHT22;5118;48.570;7.916;2022-07-29T00:26:31;22.50;78.70
10155;DHT22;5118;48.570;7.916;2022-07-29T00:29:01;22.50;79.30
10155;DHT22;5118;48.570;7.916;2022-07-29T00:31:51;22.40;79.40
10155;DHT22;5118;48.570;7.916;2022-07-29T00:34:20;22.40;80.10
10155;DHT22;5118;48.570;7.916;2022-07-29T00:37:06;22.40;80.40
10155;DHT22;5118;48.570;7.916;2022-07-29T00:39:34;22.30;81.40
10155;DHT22;5118;48.570;7.916;2022-07-29T00:42:04;22.30;81.90
10155;DHT22;5118;48.570;7.916;2022-07-29T00:44:36;22.30;82.50
10155;DHT22;5118;48.570;7.916;2022-07-29T00:47:07;22.20;84.70
10155;DHT22;5118;48.570;7.916;2022-07-29T00:49:38;22.10;85.00
10155;DHT22;5118;48.570;7.916;2022-07-29T00:52:08;22.10;86.20
10155;DHT22;5118;48.570;7.916;2022-07-29T00:54:38;22.00;86.20
10155;DHT22;5118;48.570;7.916;2022-07-29T00:57:11;22.10;87.10
10155;DHT22;5118;48.570;7.916;2022-07-29T00:59:39;22.00;87.20
10155;DHT22;5118;48.570;7.916;2022-07-29T01:02:10;22.00;89.50
10155;DHT22;5118;48.570;7.916;2022-07-29T01:04:38;21.90;90.50
10155;DHT22;5118;48.570;7.916;2022-07-29T01:07:07;21.90;91.00
10155;DHT22;5118;48.570;7.916;2022-07-29T01:09:37;21.90;91.00
10155;DHT22;5118;48.570;7.916;2022-07-29T01:12:13;21.80;91.40
10155;DHT22;5118;48.570;7.916;2022-07-29T01:14:43;21.70;92.10
10155;DHT22;5118;48.570;7.916;2022-07-29T01:17:22;21.70;92.90
10155;DHT22;5118;48.570;7.916;2022-07-29T01:19:58;21.70;94.00
10155;DHT22;5118;48.570;7.916;2022-07-29T01:22:42;21.60;94.90
10155;DHT22;5118;48.570;7.916;2022-07-29T01:25:20;21.60;95.80
10155;DHT22;5118;48.570;7.916;2022-07-29T01:28:08;21.60;96.80
10155;DHT22;5118;48.570;7.916;2022-07-29T01:30:45;21.60;98.20
10155;DHT22;5118;48.570;7.916;2022-07-29T01:33:20;21.50;98.30
10155;DHT22;5118;48.570;7.916;2022-07-29T01:36:13;21.50;99.40
10155;DHT22;5118;48.570;7.916;2022-07-29T01:38:46;21.50;99.90
10155;DHT22;5118;48.570;7.916;2022-07-29T01:41:19;21.40;99.90
10155;DHT22;5118;48.570;7.916;2022-07-29T01:43:53;21.40;99.90
10155;DHT22;5118;48.570;7.916;2022-07-29T01:46:30;21.30;99.90
10155;DHT22;5118;48.570;7.916;2022-07-29T01:49:03;21.30;99.90
10155;DHT22;5118;48.570;7.916;2022-07-29T01:51:40;21.20;99.90
10155;DHT22;5118;48.570;7.916;2022-07-29T01:54:14;21.20;99.90
10155;DHT22;5118;48.570;7.916;2022-07-29T01:56:45;21.20;99.90
10155;DHT22;5118;48.570;7.916;2022-07-29T01:59:16;21.10;99.90
10155;DHT22;5118;48.570;7.916;2022-07-29T02:01:49;21.00;99.90
10155;DHT22;5118;48.570;7.916;2022-07-29T02:04:21;21.00;99.90
10155;DHT22;5118;48.570;7.916;2022-07-29T02:07:00;21.00;99.90
10155;DHT22;5118;48.570;7.916;2022-07-29T02:09:30;20.90;99.90
10155;DHT22;5118;48.570;7.916;2022-07-29T02:12:00;20.80;99.90
10155;DHT22;5118;48.570;7.916;2022-07-29T02:14:35;20.80;99.90
10155;DHT22;5118;48.570;7.916;2022-07-29T02:17:06;20.70;99.90
10155;DHT22;5118;48.570;7.916;2022-07-29T02:19:37;20.60;99.90
10155;DHT22;5118;48.570;7.916;2022-07-29T02:22:06;20.60;99.90
10155;DHT22;5118;48.570;7.916;2022-07-29T02:24:37;20.50;99.90
10155;DHT22;5118;48.570;7.916;2022-07-29T02:27:08;20.50;99.90
10155;DHT22;5118;48.570;7.916;2022-07-29T02:29:39;20.40;99.90
10155;DHT22;5118;48.570;7.916;2022-07-29T02:32:10;20.40;99.90
10155;DHT22;5118;48.570;7.916;2022-07-29T02:34:41;20.40;99.90
10155;DHT22;5118;48.570;7.916;2022-07-29T02:37:11;20.40;99.90
10155;DHT22;5118;48.570;7.916;2022-07-29T02:39:42;20.30;99.90
10155;DHT22;5118;48.570;7.916;2022-07-29T02:42:14;20.30;99.90
10155;DHT22;5118;48.570;7.916;2022-07-29T02:44:44;20.30;99.90
10155;DHT22;5118;48.570;7.916;2022-07-29T02:47:18;20.30;99.90
10155;DHT22;5118;48.570;7.916;2022-07-29T02:49:53;20.20;99.90
10155;DHT22;5118;48.570;7.916;2022-07-29T02:52:26;20.20;99.90
10155;DHT22;5118;48.570;7.916;2022-07-29T02:54:56;20.20;99.90
10155;DHT22;5118;48.570;7.916;2022-07-29T02:57:32;20.20;99.90
10155;DHT22;5118;48.570;7.916;2022-07-29T03:00:21;20.10;99.90
10155;DHT22;5118;48.570;7.916;2022-07-29T03:02:56;20.10;99.90
10155;DHT22;5118;48.570;7.916;2022-07-29T03:05:26;20.10;99.90
10155;DHT22;5118;48.570;7.916;2022-07-29T03:07:57;20.10;99.90
10155;DHT22;5118;48.570;7.916;2022-07-29T03:10:27;20.10;99.90
10155;DHT22;5118;48.570;7.916;2022-07-29T03:12:56;20.10;99.90
10155;DHT22;5118;48.570;7.916;2022-07-29T03:15:26;20.10;99.90
10155;DHT22;5118;48.570;7.916;2022-07-29T03:17:57;20.10;99.90
10155;DHT22;5118;48.570;7.916;2022-07-29T03:20:26;20.00;99.90
10155;DHT22;5118;48.570;7.916;2022-07-29T03:22:55;20.10;99.90
10155;DHT22;5118;48.570;7.916;2022-07-29T03:25:24;20.10;99.90
10155;DHT22;5118;48.570;7.916;2022-07-29T03:27:54;20.10;99.90
10155;DHT22;5118;48.570;7.916;2022-07-29T03:30:23;20.10;99.90
10155;DHT22;5118;48.570;7.916;2022-07-29T03:32:53;19.90;99.90
10155;DHT22;5118;48.570;7.916;2022-07-29T03:35:26;19.90;99.90
10155;DHT22;5118;48.570;7.916;2022-07-29T03:37:54;19.90;99.90
10155;DHT22;5118;48.570;7.916;2022-07-29T03:40:30;19.80;99.90
10155;DHT22;5118;48.570;7.916;2022-07-29T03:43:00;19.70;99.90
10155;DHT22;5118;48.570;7.916;2022-07-29T03:45:30;19.60;99.90
10155;DHT22;5118;48.570;7.916;2022-07-29T03:48:02;19.60;99.90
10155;DHT22;5118;48.570;7.916;2022-07-29T03:50:35;19.60;99.90
10155;DHT22;5118;48.570;7.916;2022-07-29T03:53:04;19.50;99.90
10155;DHT22;5118;48.570;7.916;2022-07-29T03:55:37;19.50;99.90
10155;DHT22;5118;48.570;7.916;2022-07-29T03:58:09;19.50;99.90
10155;DHT22;5118;48.570;7.916;2022-07-29T04:00:39;19.50;99.90
10155;DHT22;5118;48.570;7.916;2022-07-29T04:03:09;19.40;99.90
10155;DHT22;5118;48.570;7.916;2022-07-29T04:05:43;19.40;99.90
10155;DHT22;5118;48.570;7.916;2022-07-29T04:08:11;19.40;99.90
10155;DHT22;5118;48.570;7.916;2022-07-29T04:10:40;19.40;99.90
10155;DHT22;5118;48.570;7.916;2022-07-29T04:13:08;19.30;99.90
10155;DHT22;5118;48.570;7.916;2022-07-29T04:15:37;19.40;99.90
10155;DHT22;5118;48.570;7.916;2022-07-29T04:18:05;19.40;99.90
10155;DHT22;5118;48.570;7.916;2022-07-29T04:20:34;19.40;99.90
10155;DHT22;5118;48.570;7.916;2022-07-29T04:23:04;19.40;99.90
10155;DHT22;5118;48.570;7.916;2022-07-29T04:25:32;19.40;99.90
10155;DHT22;5118;48.570;7.916;2022-07-29T04:28:00;19.40;99.90
10155;DHT22;5118;48.570;7.916;2022-07-29T04:30:30;19.40;99.90
10155;DHT22;5118;48.570;7.916;2022-07-29T04:32:58;19.50;99.90
10155;DHT22;5118;48.570;7.916;2022-07-29T04:35:28;19.60;99.90
10155;DHT22;5118;48.570;7.916;2022-07-29T04:38:06;19.60;99.90
10155;DHT22;5118;48.570;7.916;2022-07-29T04:40:43;19.60;99.90
10155;DHT22;5118;48.570;7.916;2022-07-29T04:43:13;19.70;99.90
10155;DHT22;5118;48.570;7.916;2022-07-29T04:45:48;19.70;99.90
10155;DHT22;5118;48.570;7.916;2022-07-29T04:48:17;19.80;99.90
10155;DHT22;5118;48.570;7.916;2022-07-29T04:50:48;19.80;99.90
10155;DHT22;5118;48.570;7.916;2022-07-29T04:53:18;19.90;99.90
10155;DHT22;5118;48.570;7.916;2022-07-29T04:55:47;19.90;99.90
10155;DHT22;5118;48.570;7.916;2022-07-29T04:58:15;20.00;99.90
10155;DHT22;5118;48.570;7.916;2022-07-29T05:00:44;20.10;99.90
10155;DHT22;5118;48.570;7.916;2022-07-29T05:03:12;20.20;99.90
10155;DHT22;5118;48.570;7.916;2022-07-29T05:05:41;20.20;99.90
10155;DHT22;5118;48.570;7.916;2022-07-29T05:08:09;20.30;99.90
10155;DHT22;5118;48.570;7.916;2022-07-29T05:10:39;20.30;99.90
10155;DHT22;5118;48.570;7.916;2022-07-29T05:13:08;20.30;99.90
10155;DHT22;5118;48.570;7.916;2022-07-29T05:15:37;20.40;99.90
10155;DHT22;5118;48.570;7.916;2022-07-29T05:18:06;20.40;99.90
10155;DHT22;5118;48.570;7.916;2022-07-29T05:20:34;20.50;99.90
10155;DHT22;5118;48.570;7.916;2022-07-29T05:23:03;20.50;99.90
10155;DHT22;5118;48.570;7.916;2022-07-29T05:25:32;20.50;99.90
10155;DHT22;5118;48.570;7.916;2022-07-29T05:28:12;20.50;99.90
10155;DHT22;5118;48.570;7.916;2022-07-29T05:30:41;20.50;99.90
10155;DHT22;5118;48.570;7.916;2022-07-29T05:33:11;20.60;99.90
10155;DHT22;5118;48.570;7.916;2022-07-29T05:36:00;20.70;99.90
10155;DHT22;5118;48.570;7.916;2022-07-29T05:38:29;20.80;99.90
10155;DHT22;5118;48.570;7.916;2022-07-29T05:40:57;20.90;99.90
10155;DHT22;5118;48.570;7.916;2022-07-29T05:43:29;21.10;99.90
10155;DHT22;5118;48.570;7.916;2022-07-29T05:45:57;21.20;99.90
10155;DHT22;5118;48.570;7.916;2022-07-29T05:48:26;21.30;99.90
10155;DHT22;5118;48.570;7.916;2022-07-29T05:50:55;21.50;99.90
10155;DHT22;5118;48.570;7.916;2022-07-29T05:53:23;21.60;99.90
10155;DHT22;5118;48.570;7.916;2022-07-29T05:55:52;21.80;99.90
10155;DHT22;5118;48.570;7.916;2022-07-29T05:58:21;21.80;99.90
10155;DHT22;5118;48.570;7.916;2022-07-29T06:00:50;21.90;99.90
10155;DHT22;5118;48.570;7.916;2022-07-29T06:03:19;22.10;99.90
10155;DHT22;5118;48.570;7.916;2022-07-29T06:05:48;22.20;99.90
10155;DHT22;5118;48.570;7.916;2022-07-29T06:08:16;22.40;99.90
10155;DHT22;5118;48.570;7.916;2022-07-29T06:10:45;22.60;99.90
10155;DHT22;5118;48.570;7.916;2022-07-29T06:13:14;22.80;99.90
10155;DHT22;5118;48.570;7.916;2022-07-29T06:15:43;23.00;99.90
10155;DHT22;5118;48.570;7.916;2022-07-29T06:18:13;23.20;99.90
10155;DHT22;5118;48.570;7.916;2022-07-29T06:20:42;23.40;99.90
10155;DHT22;5118;48.570;7.916;2022-07-29T06:23:10;23.60;99.90
10155;DHT22;5118;48.570;7.916;2022-07-29T06:25:40;23.70;99.90
10155;DHT22;5118;48.570;7.916;2022-07-29T06:28:08;23.80;99.90
10155;DHT22;5118;48.570;7.916;2022-07-29T06:30:37;23.90;99.90
10155;DHT22;5118;48.570;7.916;2022-07-29T06:33:06;24.00;99.90
10155;DHT22;5118;48.570;7.916;2022-07-29T06:35:36;24.10;99.90
10155;DHT22;5118;48.570;7.916;2022-07-29T06:38:09;24.20;99.90
10155;DHT22;5118;48.570;7.916;2022-07-29T06:40:58;24.30;99.90
10155;DHT22;5118;48.570;7.916;2022-07-29T06:43:32;24.40;99.90
10155;DHT22;5118;48.570;7.916;2022-07-29T06:46:20;24.60;99.90
10155;DHT22;5118;48.570;7.916;2022-07-29T06:48:50;24.70;99.90
10155;DHT22;5118;48.570;7.916;2022-07-29T06:51:21;24.80;99.90
10155;DHT22;5118;48.570;7.916;2022-07-29T06:53:51;24.90;99.90
10155;DHT22;5118;48.570;7.916;2022-07-29T06:56:39;25.10;99.90
10155;DHT22;5118;48.570;7.916;2022-07-29T06:59:10;25.10;99.90
10155;DHT22;5118;48.570;7.916;2022-07-29T07:01:40;25.10;99.90
10155;DHT22;5118;48.570;7.916;2022-07-29T07:04:10;25.20;99.90
10155;DHT22;5118;48.570;7.916;2022-07-29T07:06:40;25.30;99.90
10155;DHT22;5118;48.570;7.916;2022-07-29T07:09:09;25.30;99.90
10155;DHT22;5118;48.570;7.916;2022-07-29T07:11:37;25.30;99.90
10155;DHT22;5118;48.570;7.916;2022-07-29T07:14:06;25.30;99.90
10155;DHT22;5118;48.570;7.916;2022-07-29T07:16:35;25.30;99.90
10155;DHT22;5118;48.570;7.916;2022-07-29T07:19:03;25.30;99.90
10155;DHT22;5118;48.570;7.916;2022-07-29T07:21:32;25.30;99.90
10155;DHT22;5118;48.570;7.916;2022-07-29T07:24:04;25.40;99.90
10155;DHT22;5118;48.570;7.916;2022-07-29T07:26:33;25.40;99.90
10155;DHT22;5118;48.570;7.916;2022-07-29T07:29:02;25.40;99.90
10155;DHT22;5118;48.570;7.916;2022-07-29T07:31:30;25.40;99.90
10155;DHT22;5118;48.570;7.916;2022-07-29T07:33:59;25.40;99.90
10155;DHT22;5118;48.570;7.916;2022-07-29T07:36:27;25.40;99.90
10155;DHT22;5118;48.570;7.916;2022-07-29T07:38:56;25.50;99.90
10155;DHT22;5118;48.570;7.916;2022-07-29T07:41:26;25.60;99.90
10155;DHT22;5118;48.570;7.916;2022-07-29T07:43:58;25.60;99.90
10155;DHT22;5118;48.570;7.916;2022-07-29T07:46:27;25.70;99.90
10155;DHT22;5118;48.570;7.916;2022-07-29T07:48:55;25.70;99.90
10155;DHT22;5118;48.570;7.916;2022-07-29T07:51:24;25.80;99.90
10155;DHT22;5118;48.570;7.916;2022-07-29T07:53:52;25.90;99.90
10155;DHT22;5118;48.570;7.916;2022-07-29T07:56:23;26.00;99.90
10155;DHT22;5118;48.570;7.916;2022-07-29T07:58:53;26.20;99.90
10155;DHT22;5118;48.570;7.916;2022-07-29T08:01:22;26.30;99.90
10155;DHT22;5118;48.570;7.916;2022-07-29T08:03:50;26.40;99.90
10155;DHT22;5118;48.570;7.916;2022-07-29T08:06:19;26.40;99.90
10155;DHT22;5118;48.570;7.916;2022-07-29T08:08:47;26.50;99.90
10155;DHT22;5118;48.570;7.916;2022-07-29T08:11:16;26.60;99.90
10155;DHT22;5118;48.570;7.916;2022-07-29T08:13:45;26.70;99.90
10155;DHT22;5118;48.570;7.916;2022-07-29T08:16:15;26.70;99.90
10155;DHT22;5118;48.570;7.916;2022-07-29T08:18:45;26.80;99.90
10155;DHT22;5118;48.570;7.916;2022-07-29T08:21:15;26.70;99.90
10155;DHT22;5118;48.570;7.916;2022-07-29T08:23:45;26.70;99.90
10155;DHT22;5118;48.570;7.916;2022-07-29T08:26:27;26.70;99.90
10155;DHT22;5118;48.570;7.916;2022-07-29T08:28:56;26.70;99.90
10155;DHT22;5118;48.570;7.916;2022-07-29T08:31:27;26.70;99.90
10155;DHT22;5118;48.570;7.916;2022-07-29T08:33:57;26.60;99.90
10155;DHT22;5118;48.570;7.916;2022-07-29T08:36:27;26.70;99.90
10155;DHT22;5118;48.570;7.916;2022-07-29T08:38:57;26.70;99.90
10155;DHT22;5118;48.570;7.916;2022-07-29T08:41:27;26.80;99.90
10155;DHT22;5118;48.570;7.916;2022-07-29T08:43:57;26.80;99.90
10155;DHT22;5118;48.570;7.916;2022-07-29T08:46:27;26.80;99.60
10155;DHT22;5118;48.570;7.916;2022-07-29T08:48:57;27.00;99.30
10155;DHT22;5118;48.570;7.916;2022-07-29T08:51:27;27.10;98.70
10155;DHT22;5118;48.570;7.916;2022-07-29T08:53:56;27.30;98.60
10155;DHT22;5118;48.570;7.916;2022-07-29T08:56:26;27.40;98.10
10155;DHT22;5118;48.570;7.916;2022-07-29T08:58:58;27.60;97.60
10155;DHT22;5118;48.570;7.916;2022-07-29T09:01:33;27.80;97.50
10155;DHT22;5118;48.570;7.916;2022-07-29T09:04:11;28.00;96.30
10155;DHT22;5118;48.570;7.916;2022-07-29T09:06:44;28.10;95.30
10155;DHT22;5118;48.570;7.916;2022-07-29T09:09:13;28.10;94.80
10155;DHT22;5118;48.570;7.916;2022-07-29T09:11:43;28.20;94.80
10155;DHT22;5118;48.570;7.916;2022-07-29T09:14:13;28.30;94.60
10155;DHT22;5118;48.570;7.916;2022-07-29T09:16:52;28.40;93.70
10155;DHT22;5118;48.570;7.916;2022-07-29T09:19:24;28.50;93.30
10155;DHT22;5118;48.570;7.916;2022-07-29T09:21:55;28.50;92.70
10155;DHT22;5118;48.570;7.916;2022-07-29T09:24:38;28.50;91.40
10155;DHT22;5118;48.570;7.916;2022-07-29T09:27:18;28.30;90.20
10155;DHT22;5118;48.570;7.916;2022-07-29T09:29:56;28.40;89.60
10155;DHT22;5118;48.570;7.916;2022-07-29T09:32:28;28.40;88.90
10155;DHT22;5118;48.570;7.916;2022-07-29T09:35:19;28.40;88.80
10155;DHT22;5118;48.570;7.916;2022-07-29T09:37:49;28.50;90.10
10155;DHT22;5118;48.570;7.916;2022-07-29T09:40:20;28.60;89.70
10155;DHT22;5118;48.570;7.916;2022-07-29T09:42:50;28.70;88.60
10155;DHT22;5118;48.570;7.916;2022-07-29T09:45:28;28.90;89.10
10155;DHT22;5118;48.570;7.916;2022-07-29T09:48:00;29.00;89.40
10155;DHT22;5118;48.570;7.916;2022-07-29T09:50:43;29.10;88.20
10155;DHT22;5118;48.570;7.916;2022-07-29T09:53:29;29.20;87.30
10155;DHT22;5118;48.570;7.916;2022-07-29T09:55:59;29.20;86.80
10155;DHT22;5118;48.570;7.916;2022-07-29T09:58:28;29.30;87.40
10155;DHT22;5118;48.570;7.916;2022-07-29T10:00:57;29.50;87.20
10155;DHT22;5118;48.570;7.916;2022-07-29T10:03:28;29.70;86.50
10155;DHT22;5118;48.570;7.916;2022-07-29T10:06:15;30.00;86.50
10155;DHT22;5118;48.570;7.916;2022-07-29T10:08:44;30.40;82.50
10155;DHT22;5118;48.570;7.916;2022-07-29T10:11:14;30.60;82.50
10155;DHT22;5118;48.570;7.916;2022-07-29T10:13:46;30.80;80.40
10155;DHT22;5118;48.570;7.916;2022-07-29T10:16:16;30.90;78.00
10155;DHT22;5118;48.570;7.916;2022-07-29T10:18:47;30.80;74.20
10155;DHT22;5118;48.570;7.916;2022-07-29T10:21:17;30.80;72.50
10155;DHT22;5118;48.570;7.916;2022-07-29T10:24:04;30.80;70.40
10155;DHT22;5118;48.570;7.916;2022-07-29T10:26:42;30.70;70.50
10155;DHT22;5118;48.570;7.916;2022-07-29T10:29:13;30.70;69.20
10155;DHT22;5118;48.570;7.916;2022-07-29T10:31:49;30.90;70.40
10155;DHT22;5118;48.570;7.916;2022-07-29T10:34:35;31.00;67.80
10155;DHT22;5118;48.570;7.916;2022-07-29T10:37:11;31.00;66.00
10155;DHT22;5118;48.570;7.916;2022-07-29T10:39:56;31.20;64.40
10155;DHT22;5118;48.570;7.916;2022-07-29T10:42:52;31.40;63.90
10155;DHT22;5118;48.570;7.916;2022-07-29T10:45:22;31.60;63.80
10155;DHT22;5118;48.570;7.916;2022-07-29T10:48:03;31.80;63.00
10155;DHT22;5118;48.570;7.916;2022-07-29T10:50:53;32.10;61.80
10155;DHT22;5118;48.570;7.916;2022-07-29T10:53:23;32.40;59.60
10155;DHT22;5118;48.570;7.916;2022-07-29T10:55:53;32.70;59.80
10155;DHT22;5118;48.570;7.916;2022-07-29T10:58:23;33.00;58.20
10155;DHT22;5118;48.570;7.916;2022-07-29T11:00:53;33.10;56.40
10155;DHT22;5118;48.570;7.916;2022-07-29T11:03:42;32.90;56.00
10155;DHT22;5118;48.570;7.916;2022-07-29T11:06:17;32.90;55.40
10155;DHT22;5118;48.570;7.916;2022-07-29T11:09:17;33.10;55.60
10155;DHT22;5118;48.570;7.916;2022-07-29T11:12:01;33.40;54.00
10155;DHT22;5118;48.570;7.916;2022-07-29T11:14:56;33.70;53.70
10155;DHT22;5118;48.570;7.916;2022-07-29T11:17:26;33.90;52.10
10155;DHT22;5118;48.570;7.916;2022-07-29T11:20:35;34.00;51.90
10155;DHT22;5118;48.570;7.916;2022-07-29T11:23:23;33.80;51.00
10155;DHT22;5118;48.570;7.916;2022-07-29T11:26:16;33.60;49.50
10155;DHT22;5118;48.570;7.916;2022-07-29T11:28:57;33.30;50.50
10155;DHT22;5118;48.570;7.916;2022-07-29T11:31:39;33.10;50.50
10155;DHT22;5118;48.570;7.916;2022-07-29T11:34:20;33.00;49.30
10155;DHT22;5118;48.570;7.916;2022-07-29T11:37:22;33.10;49.00
10155;DHT22;5118;48.570;7.916;2022-07-29T11:40:14;33.30;48.00
10155;DHT22;5118;48.570;7.916;2022-07-29T11:42:51;33.50;49.80
10155;DHT22;5118;48.570;7.916;2022-07-29T11:45:23;33.60;49.60
10155;DHT22;5118;48.570;7.916;2022-07-29T11:48:16;33.50;49.70
10155;DHT22;5118;48.570;7.916;2022-07-29T11:50:58;33.30;50.40
10155;DHT22;5118;48.570;7.916;2022-07-29T11:53:29;33.30;50.20
10155;DHT22;5118;48.570;7.916;2022-07-29T11:56:01;33.10;50.40
10155;DHT22;5118;48.570;7.916;2022-07-29T11:58:30;32.80;50.90
10155;DHT22;5118;48.570;7.916;2022-07-29T12:00:59;32.60;51.00
10155;DHT22;5118;48.570;7.916;2022-07-29T12:03:31;32.40;51.50
10155;DHT22;5118;48.570;7.916;2022-07-29T12:06:11;32.30;51.60
10155;DHT22;5118;48.570;7.916;2022-07-29T12:08:42;32.10;51.40
10155;DHT22;5118;48.570;7.916;2022-07-29T12:11:19;31.90;51.50
10155;DHT22;5118;48.570;7.916;2022-07-29T12:13:49;31.90;51.40
10155;DHT22;5118;48.570;7.916;2022-07-29T12:16:19;31.80;51.60
10155;DHT22;5118;48.570;7.916;2022-07-29T12:18:59;31.60;51.60
10155;DHT22;5118;48.570;7.916;2022-07-29T12:21:29;31.50;51.90
10155;DHT22;5118;48.570;7.916;2022-07-29T12:24:01;31.60;52.40
10155;DHT22;5118;48.570;7.916;2022-07-29T12:26:49;31.80;52.20
10155;DHT22;5118;48.570;7.916;2022-07-29T12:29:19;31.90;52.30
10155;DHT22;5118;48.570;7.916;2022-07-29T12:32:03;32.00;51.50
10155;DHT22;5118;48.570;7.916;2022-07-29T12:34:45;32.10;51.60
10155;DHT22;5118;48.570;7.916;2022-07-29T12:37:14;31.90;52.00
10155;DHT22;5118;48.570;7.916;2022-07-29T12:39:43;31.80;52.00
10155;DHT22;5118;48.570;7.916;2022-07-29T12:42:14;31.80;51.50
10155;DHT22;5118;48.570;7.916;2022-07-29T12:44:46;31.90;51.90
10155;DHT22;5118;48.570;7.916;2022-07-29T12:47:14;31.80;52.50
10155;DHT22;5118;48.570;7.916;2022-07-29T12:49:43;31.70;53.10
10155;DHT22;5118;48.570;7.916;2022-07-29T12:52:29;31.60;52.60
10155;DHT22;5118;48.570;7.916;2022-07-29T12:54:57;31.80;53.00
10155;DHT22;5118;48.570;7.916;2022-07-29T12:57:28;32.00;52.40
10155;DHT22;5118;48.570;7.916;2022-07-29T13:00:05;32.20;51.90
10155;DHT22;5118;48.570;7.916;2022-07-29T13:02:37;32.40;51.70
10155;DHT22;5118;48.570;7.916;2022-07-29T13:05:07;32.60;51.60
10155;DHT22;5118;48.570;7.916;2022-07-29T13:07:37;32.80;51.30
10155;DHT22;5118;48.570;7.916;2022-07-29T13:10:23;33.00;51.10
10155;DHT22;5118;48.570;7.916;2022-07-29T13:13:04;33.30;50.20
10155;DHT22;5118;48.570;7.916;2022-07-29T13:15:34;33.60;48.90
10155;DHT22;5118;48.570;7.916;2022-07-29T13:18:03;33.90;49.00
10155;DHT22;5118;48.570;7.916;2022-07-29T13:20:32;34.10;48.00
10155;DHT22;5118;48.570;7.916;2022-07-29T13:23:01;34.10;48.00
10155;DHT22;5118;48.570;7.916;2022-07-29T13:25:31;34.10;48.00
10155;DHT22;5118;48.570;7.916;2022-07-29T13:28:00;33.80;46.70
10155;DHT22;5118;48.570;7.916;2022-07-29T13:30:29;33.70;47.60
10155;DHT22;5118;48.570;7.916;2022-07-29T13:32:58;33.80;47.50
10155;DHT22;5118;48.570;7.916;2022-07-29T13:35:26;33.90;47.10
10155;DHT22;5118;48.570;7.916;2022-07-29T13:37:56;33.90;47.30
10155;DHT22;5118;48.570;7.916;2022-07-29T13:40:25;33.80;47.40
10155;DHT22;5118;48.570;7.916;2022-07-29T13:42:54;33.80;46.10
10155;DHT22;5118;48.570;7.916;2022-07-29T13:45:22;33.90;45.50
10155;DHT22;5118;48.570;7.916;2022-07-29T13:47:56;34.00;46.30
10155;DHT22;5118;48.570;7.916;2022-07-29T13:50:24;34.10;45.90
10155;DHT22;5118;48.570;7.916;2022-07-29T13:52:53;34.10;45.40
10155;DHT22;5118;48.570;7.916;2022-07-29T13:55:22;34.00;45.00
10155;DHT22;5118;48.570;7.916;2022-07-29T13:57:50;34.00;45.30
10155;DHT22;5118;48.570;7.916;2022-07-29T14:00:19;34.10;45.40
10155;DHT22;5118;48.570;7.916;2022-07-29T14:02:47;34.10;45.40
10155;DHT22;5118;48.570;7.916;2022-07-29T14:05:17;34.10;45.30
10155;DHT22;5118;48.570;7.916;2022-07-29T14:07:46;33.70;44.90
10155;DHT22;5118;48.570;7.916;2022-07-29T14:10:17;33.60;45.50
10155;DHT22;5118;48.570;7.916;2022-07-29T14:12:46;33.60;45.80
10155;DHT22;5118;48.570;7.916;2022-07-29T14:15:14;33.40;46.00
10155;DHT22;5118;48.570;7.916;2022-07-29T14:17:43;33.30;45.60
10155;DHT22;5118;48.570;7.916;2022-07-29T14:20:11;33.20;45.40
10155;DHT22;5118;48.570;7.916;2022-07-29T14:22:41;33.20;45.80
10155;DHT22;5118;48.570;7.916;2022-07-29T14:25:11;33.40;45.60
10155;DHT22;5118;48.570;7.916;2022-07-29T14:27:42;33.60;45.20
10155;DHT22;5118;48.570;7.916;2022-07-29T14:30:11;33.80;44.70
10155;DHT22;5118;48.570;7.916;2022-07-29T14:32:40;33.80;44.80
10155;DHT22;5118;48.570;7.916;2022-07-29T14:35:09;34.10;44.20
10155;DHT22;5118;48.570;7.916;2022-07-29T14:37:38;34.50;43.90
10155;DHT22;5118;48.570;7.916;2022-07-29T14:40:10;35.00;43.10
10155;DHT22;5118;48.570;7.916;2022-07-29T14:42:39;35.20;42.40
10155;DHT22;5118;48.570;7.916;2022-07-29T14:45:09;35.30;41.70
10155;DHT22;5118;48.570;7.916;2022-07-29T14:47:38;35.40;41.80
10155;DHT22;5118;48.570;7.916;2022-07-29T14:50:07;35.30;41.60
10155;DHT22;5118;48.570;7.916;2022-07-29T14:52:36;35.20;40.70
10155;DHT22;5118;48.570;7.916;2022-07-29T14:55:06;34.90;40.50
10155;DHT22;5118;48.570;7.916;2022-07-29T14:57:47;34.60;40.80
10155;DHT22;5118;48.570;7.916;2022-07-29T15:00:17;34.30;41.60
10155;DHT22;5118;48.570;7.916;2022-07-29T15:02:45;34.30;41.70
10155;DHT22;5118;48.570;7.916;2022-07-29T15:05:29;34.40;41.80
10155;DHT22;5118;48.570;7.916;2022-07-29T15:07:58;34.40;41.00
10155;DHT22;5118;48.570;7.916;2022-07-29T15:10:27;34.60;40.60
10155;DHT22;5118;48.570;7.916;2022-07-29T15:12:57;34.70;40.70
10155;DHT22;5118;48.570;7.916;2022-07-29T15:15:25;34.70;41.00
10155;DHT22;5118;48.570;7.916;2022-07-29T15:17:54;34.70;41.20
10155;DHT22;5118;48.570;7.916;2022-07-29T15:20:23;34.80;41.30
10155;DHT22;5118;48.570;7.916;2022-07-29T15:22:54;34.90;41.40
10155;DHT22;5118;48.570;7.916;2022-07-29T15:25:23;34.80;40.10
10155;DHT22;5118;48.570;7.916;2022-07-29T15:27:54;34.60;39.50
10155;DHT22;5118;48.570;7.916;2022-07-29T15:30:29;34.30;39.50
10155;DHT22;5118;48.570;7.916;2022-07-29T15:33:00;34.10;40.20
10155;DHT22;5118;48.570;7.916;2022-07-29T15:35:30;34.00;40.50
10155;DHT22;5118;48.570;7.916;2022-07-29T15:37:58;34.00;40.50
10155;DHT22;5118;48.570;7.916;2022-07-29T15:40:27;33.90;40.00
10155;DHT22;5118;48.570;7.916;2022-07-29T15:42:56;33.70;39.60
10155;DHT22;5118;48.570;7.916;2022-07-29T15:45:29;33.90;39.70
10155;DHT22;5118;48.570;7.916;2022-07-29T15:47:58;34.10;40.00
10155;DHT22;5118;48.570;7.916;2022-07-29T15:50:27;34.20;40.30
10155;DHT22;5118;48.570;7.916;2022-07-29T15:52:55;34.70;40.00
10155;DHT22;5118;48.570;7.916;2022-07-29T15:55:24;35.30;39.70
10155;DHT22;5118;48.570;7.916;2022-07-29T15:57:52;35.80;38.10
10155;DHT22;5118;48.570;7.916;2022-07-29T16:00:26;36.20;37.50
10155;DHT22;5118;48.570;7.916;2022-07-29T16:02:56;36.60;36.90
10155;DHT22;5118;48.570;7.916;2022-07-29T16:05:25;37.00;36.70
10155;DHT22;5118;48.570;7.916;2022-07-29T16:07:55;37.80;36.10
10155;DHT22;5118;48.570;7.916;2022-07-29T16:10:26;38.40;35.30
10155;DHT22;5118;48.570;7.916;2022-07-29T16:12:55;39.20;34.10
10155;DHT22;5118;48.570;7.916;2022-07-29T16:15:24;40.00;33.60
10155;DHT22;5118;48.570;7.916;2022-07-29T16:17:52;40.80;31.70